sensor_id;sensor_type;location;lat;lon;timestamp;P1;P2;P0
61879;PMS7003;47817;52.798;27.544;2023-04-24T00:01:49;2.8;2.4;2.4
61879;PMS7003;47817;52.798;27.544;2023-04-24T00:06:25;2.2;1.8;1.8
61879;PMS7003;47817;52.798;27.544;2023-04-24T00:11:07;2.6;2.4;2
61879;PMS7003;47817;52.798;27.544;2023-04-24T00:16:43;2.8;2.6;1.6
61879;PMS7003;47817;52.798;27.544;2023-04-24T00:21:51;3.6;2.6;2.2
61879;PMS7003;47817;52.798;27.544;2023-04-24T00:26:07;3;2.6;2.4
61879;PMS7003;47817;52.798;27.544;2023-04-24T00:31:49;3;2.4;2
61879;PMS7003;47817;52.798;27.544;2023-04-24T00:36:53;4.5;3.3;2.3
61879;PMS7003;47817;52.798;27.544;2023-04-24T00:41:37;3.8;3;2.6
61879;PMS7003;47817;52.798;27.544;2023-04-24T00:46:29;2.8;2.4;2
61879;PMS7003;47817;52.798;27.544;2023-04-24T00:51:29;3.2;2.6;2.2
61879;PMS7003;47817;52.798;27.544;2023-04-24T00:56:43;2.6;2.4;2.4
61879;PMS7003;47817;52.798;27.544;2023-04-24T01:01:39;2.6;2.4;2.2
61879;PMS7003;47817;52.798;27.544;2023-04-24T01:06:07;3.8;2.8;2.3
61879;PMS7003;47817;52.798;27.544;2023-04-24T01:11:51;2.8;2.6;2.6
61879;PMS7003;47817;52.798;27.544;2023-04-24T01:16:39;2;2;1.8
61879;PMS7003;47817;52.798;27.544;2023-04-24T01:21:19;3.4;2.8;2
61879;PMS7003;47817;52.798;27.544;2023-04-24T01:26:29;3.4;2.2;2
61879;PMS7003;47817;52.798;27.544;2023-04-24T01:31:25;3.2;3;2.4
61879;PMS7003;47817;52.798;27.544;2023-04-24T01:36:15;3.3;2.8;2.5
61879;PMS7003;47817;52.798;27.544;2023-04-24T01:41:07;2.8;2.6;2
61879;PMS7003;47817;52.798;27.544;2023-04-24T01:46:37;3.4;3;2.4
61879;PMS7003;47817;52.798;27.544;2023-04-24T01:51:31;2.8;2.6;1.8
61879;PMS7003;47817;52.798;27.544;2023-04-24T01:56:51;3;2.8;2.6
61879;PMS7003;47817;52.798;27.544;2023-04-24T02:01:07;4;2.8;2.6
61879;PMS7003;47817;52.798;27.544;2023-04-24T02:06:51;3.2;3;2.2
61879;PMS7003;47817;52.798;27.544;2023-04-24T02:11:51;2.8;2.4;2
61879;PMS7003;47817;52.798;27.544;2023-04-24T02:16:49;3.8;3;2.2
61879;PMS7003;47817;52.798;27.544;2023-04-24T02:21:17;3;2.5;2
61879;PMS7003;47817;52.798;27.544;2023-04-24T02:26:41;2.4;2.4;2
61879;PMS7003;47817;52.798;27.544;2023-04-24T02:31:17;2.8;2.6;2.2
61879;PMS7003;47817;52.798;27.544;2023-04-24T02:36:39;2.8;2.8;2.6
61879;PMS7003;47817;52.798;27.544;2023-04-24T02:41:29;2.8;2.8;2.4
61879;PMS7003;47817;52.798;27.544;2023-04-24T02:46:07;4;2.6;2.2
61879;PMS7003;47817;52.798;27.544;2023-04-24T02:51:49;3.4;3;2.6
61879;PMS7003;47817;52.798;27.544;2023-04-24T02:56:25;3.8;3.4;2.8
61879;PMS7003;47817;52.798;27.544;2023-04-24T03:01:07;4;3;3
61879;PMS7003;47817;52.798;27.544;2023-04-24T03:06:53;4.8;3.2;2.8
61879;PMS7003;47817;52.798;27.544;2023-04-24T03:11:27;3.6;3.2;2.6
61879;PMS7003;47817;52.798;27.544;2023-04-24T03:16:13;3.8;3.8;2.8
61879;PMS7003;47817;52.798;27.544;2023-04-24T03:21:43;3.6;3;2.8
61879;PMS7003;47817;52.798;27.544;2023-04-24T03:26:49;4.4;3.8;3.2
61879;PMS7003;47817;52.798;27.544;2023-04-24T03:31:19;4.2;3.6;2.6
61879;PMS7003;47817;52.798;27.544;2023-04-24T03:36:19;4.2;3.6;3.2
61879;PMS7003;47817;52.798;27.544;2023-04-24T03:41:51;3.5;3;2.8
61879;PMS7003;47817;52.798;27.544;2023-04-24T03:46:51;4;3.2;3
61879;PMS7003;47817;52.798;27.544;2023-04-24T03:51:29;4.8;3.6;3
61879;PMS7003;47817;52.798;27.544;2023-04-24T03:56:07;3.6;3;2.4
61879;PMS7003;47817;52.798;27.544;2023-04-24T04:01:51;4;4;3.4
61879;PMS7003;47817;52.798;27.544;2023-04-24T04:06:37;4.4;3.6;3.2
61879;PMS7003;47817;52.798;27.544;2023-04-24T04:11:07;4.2;4.2;3.4
61879;PMS7003;47817;52.798;27.544;2023-04-24T04:16:07;3.8;3.8;3.5
61879;PMS7003;47817;52.798;27.544;2023-04-24T04:21:29;3.4;3.2;3
61879;PMS7003;47817;52.798;27.544;2023-04-24T04:26:07;5;4.4;3.6
61879;PMS7003;47817;52.798;27.544;2023-04-24T04:31:17;5.8;4.2;3.6
61879;PMS7003;47817;52.798;27.544;2023-04-24T04:36:39;5.2;5;4.2
61879;PMS7003;47817;52.798;27.544;2023-04-24T04:41:19;5.2;4.4;3.8
61879;PMS7003;47817;52.798;27.544;2023-04-24T04:46:29;5.4;4.6;4.2
61879;PMS7003;47817;52.798;27.544;2023-04-24T04:51:37;5.4;4.4;3.6
61879;PMS7003;47817;52.798;27.544;2023-04-24T04:56:19;4.8;4.8;4.2
61879;PMS7003;47817;52.798;27.544;2023-04-24T05:01:51;6.5;4;3.8
61879;PMS7003;47817;52.798;27.544;2023-04-24T05:06:23;6.4;4.6;4
61879;PMS7003;47817;52.798;27.544;2023-04-24T05:11:53;5.2;4.4;3.6
61879;PMS7003;47817;52.798;27.544;2023-04-24T05:16:39;5.2;4.2;3.4
61879;PMS7003;47817;52.798;27.544;2023-04-24T05:21:51;5.6;5;3.8
61879;PMS7003;47817;52.798;27.544;2023-04-24T05:26:19;5;4.4;3.4
61879;PMS7003;47817;52.798;27.544;2023-04-24T05:31:51;5.2;4.6;4.2
61879;PMS7003;47817;52.798;27.544;2023-04-24T05:36:07;5.4;4.2;3.4
61879;PMS7003;47817;52.798;27.544;2023-04-24T05:41:25;4.8;4;3.4
61879;PMS7003;47817;52.798;27.544;2023-04-24T05:46:29;5;4.3;3.5
61879;PMS7003;47817;52.798;27.544;2023-04-24T05:51:19;4.8;4.2;3.2
61879;PMS7003;47817;52.798;27.544;2023-04-24T05:56:53;4.6;4.2;3.2
61879;PMS7003;47817;52.798;27.544;2023-04-24T06:01:15;4.2;4.2;3.6
61879;PMS7003;47817;52.798;27.544;2023-04-24T06:06:07;4.2;3.8;3
61879;PMS7003;47817;52.798;27.544;2023-04-24T06:11:51;4.4;4.2;3.4
61879;PMS7003;47817;52.798;27.544;2023-04-24T06:16:25;4.8;4.4;3.4
61879;PMS7003;47817;52.798;27.544;2023-04-24T06:21:07;4.2;4;3.2
61879;PMS7003;47817;52.798;27.544;2023-04-24T06:26:41;4.5;4.3;3.5
61879;PMS7003;47817;52.798;27.544;2023-04-24T06:31:51;3.8;3.8;3.4
61879;PMS7003;47817;52.798;27.544;2023-04-24T06:36:07;6;5.4;4.2
61879;PMS7003;47817;52.798;27.544;2023-04-24T06:41:41;4.6;4;3.2
61879;PMS7003;47817;52.798;27.544;2023-04-24T06:46:49;3.4;3.4;3
61879;PMS7003;47817;52.798;27.544;2023-04-24T06:51:49;3.4;3.4;2.8
61879;PMS7003;47817;52.798;27.544;2023-04-24T06:56:15;4;3.6;3
61879;PMS7003;47817;52.798;27.544;2023-04-24T07:01:07;3.8;3;2.8
61879;PMS7003;47817;52.798;27.544;2023-04-24T07:06:49;4.4;4.4;3.6
61879;PMS7003;47817;52.798;27.544;2023-04-24T07:11:35;8.8;6.8;5
61879;PMS7003;47817;52.798;27.544;2023-04-24T07:16:07;7.2;6.2;5
61879;PMS7003;47817;52.798;27.544;2023-04-24T07:21:29;5;4.4;3.2
61879;PMS7003;47817;52.798;27.544;2023-04-24T07:26:41;3.2;2.6;2.4
61879;PMS7003;47817;52.798;27.544;2023-04-24T07:31:15;2.6;2.6;2
61879;PMS7003;47817;52.798;27.544;2023-04-24T07:36:29;3.8;3;2.2
61879;PMS7003;47817;52.798;27.544;2023-04-24T07:41:51;3.2;2.6;2
61879;PMS7003;47817;52.798;27.544;2023-04-24T07:46:19;2.8;2.8;2.4
61879;PMS7003;47817;52.798;27.544;2023-04-24T07:51:43;3.5;2.8;2.3
61879;PMS7003;47817;52.798;27.544;2023-04-24T07:56:25;3.6;2.6;2.6
61879;PMS7003;47817;52.798;27.544;2023-04-24T08:01:29;3.4;3.4;2.4
61879;PMS7003;47817;52.798;27.544;2023-04-24T08:06:41;3.2;3;2.4
61879;PMS7003;47817;52.798;27.544;2023-04-24T08:11:07;2.6;2.4;2
61879;PMS7003;47817;52.798;27.544;2023-04-24T08:16:19;3.4;2.4;2
61879;PMS7003;47817;52.798;27.544;2023-04-24T08:21:41;3.2;3.2;2.6
61879;PMS7003;47817;52.798;27.544;2023-04-24T08:26:51;2.4;1.6;1.6
61879;PMS7003;47817;52.798;27.544;2023-04-24T08:31:19;2.5;2.3;2
61879;PMS7003;47817;52.798;27.544;2023-04-24T08:36:53;2.8;1.8;1.6
61879;PMS7003;47817;52.798;27.544;2023-04-24T08:41:55;2;2;2
61879;PMS7003;47817;52.798;27.544;2023-04-24T08:46:39;2.8;2.6;2.2
61879;PMS7003;47817;52.798;27.544;2023-04-24T08:51:19;3;2.4;2.2
61879;PMS7003;47817;52.798;27.544;2023-04-24T08:56:07;1.6;1.2;1.2
61879;PMS7003;47817;52.798;27.544;2023-04-24T09:01:53;2.6;2.4;2
61879;PMS7003;47817;52.798;27.544;2023-04-24T09:06:13;3.8;2.8;1.8
61879;PMS7003;47817;52.798;27.544;2023-04-24T09:11:17;2.6;2.4;2.2
61879;PMS7003;47817;52.798;27.544;2023-04-24T09:16:51;2.4;2.4;2
61879;PMS7003;47817;52.798;27.544;2023-04-24T09:21:07;2.4;2;1.8
61879;PMS7003;47817;52.798;27.544;2023-04-24T09:26:25;2.6;2;1.6
61879;PMS7003;47817;52.798;27.544;2023-04-24T09:31:43;2.8;2.6;2.2
61879;PMS7003;47817;52.798;27.544;2023-04-24T09:36:53;3;2.6;2.2
61879;PMS7003;47817;52.798;27.544;2023-04-24T09:41:19;3.6;2.8;2.2
61879;PMS7003;47817;52.798;27.544;2023-04-24T09:46:18;3.4;2.6;2.4
61879;PMS7003;47817;52.798;27.544;2023-04-24T09:52:02;2.4;2.2;1.8
61879;PMS7003;47817;52.798;27.544;2023-04-24T09:56:53;3.5;2.8;2.5
61879;PMS7003;47817;52.798;27.544;2023-04-24T10:01:37;2.2;1.8;1.8
61879;PMS7003;47817;52.798;27.544;2023-04-24T10:06:19;2.6;2.6;2.2
61879;PMS7003;47817;52.798;27.544;2023-04-24T10:11:53;3;2.2;2
61879;PMS7003;47817;52.798;27.544;2023-04-24T10:16:39;2.6;2.2;2.2
61879;PMS7003;47817;52.798;27.544;2023-04-24T10:21:07;3.8;3.2;2.6
61879;PMS7003;47817;52.798;27.544;2023-04-24T10:26:19;3;2.3;2.3
61879;PMS7003;47817;52.798;27.544;2023-04-24T10:31:45;3;2.8;2.4
61879;PMS7003;47817;52.798;27.544;2023-04-24T10:36:13;4.4;3.8;3.2
61879;PMS7003;47817;52.798;27.544;2023-04-24T10:41:31;5.4;4.6;3.8
61879;PMS7003;47817;52.798;27.544;2023-04-24T10:46:52;4.8;4;3.8
61879;PMS7003;47817;52.798;27.544;2023-04-24T10:51:43;4;3.8;2.8
61879;PMS7003;47817;52.798;27.544;2023-04-24T10:56:53;3.8;3.2;2.8
61879;PMS7003;47817;52.798;27.544;2023-04-24T11:01:27;4;3;2.5
61879;PMS7003;47817;52.798;27.544;2023-04-24T11:06:19;4.2;3.2;2.6
61879;PMS7003;47817;52.798;27.544;2023-04-24T11:12:02;4.2;3.6;2.6
61879;PMS7003;47817;52.798;27.544;2023-04-24T11:16:14;2.6;2.4;1.8
61879;PMS7003;47817;52.798;27.544;2023-04-24T11:21:19;3.4;3;2.6
61879;PMS7003;47817;52.798;27.544;2023-04-24T11:26:43;4.6;4;3.6
61879;PMS7003;47817;52.798;27.544;2023-04-24T11:31:53;3.8;2.4;2.4
61879;PMS7003;47817;52.798;27.544;2023-04-24T11:36:39;3.6;2.8;2.4
61879;PMS7003;47817;52.798;27.544;2023-04-24T11:41:51;3;2.8;2
61879;PMS7003;47817;52.798;27.544;2023-04-24T11:46:55;5;3.2;2.6
61879;PMS7003;47817;52.798;27.544;2023-04-24T11:51:15;2.8;2.4;2.2
61879;PMS7003;47817;52.798;27.544;2023-04-24T11:56:29;3.8;2.4;2
61879;PMS7003;47817;52.798;27.544;2023-04-24T12:01:19;3.8;3.3;2.3
61879;PMS7003;47817;52.798;27.544;2023-04-24T12:07:00;4.6;3.4;3.2
61879;PMS7003;47817;52.798;27.544;2023-04-24T12:11:37;3.8;2.6;2.2
61879;PMS7003;47817;52.798;27.544;2023-04-24T12:16:07;3.6;2.6;2.4
61879;PMS7003;47817;52.798;27.544;2023-04-24T12:21:43;4.8;3.3;2.5
61879;PMS7003;47817;52.798;27.544;2023-04-24T12:26:53;3.6;2.4;1.8
61879;PMS7003;47817;52.798;27.544;2023-04-24T12:31:15;3;2.8;2.2
61879;PMS7003;47817;52.798;27.544;2023-04-24T12:36:31;3.8;3;2.6
61879;PMS7003;47817;52.798;27.544;2023-04-24T12:41:49;3.8;2.6;2.2
61879;PMS7003;47817;52.798;27.544;2023-04-24T12:46:19;3.6;3;3
61879;PMS7003;47817;52.798;27.544;2023-04-24T12:51:21;2.8;2.6;2.4
61879;PMS7003;47817;52.798;27.544;2023-04-24T12:56:29;3;2;1.8
61879;PMS7003;47817;52.798;27.544;2023-04-24T13:01:07;12.4;11;8.8
61879;PMS7003;47817;52.798;27.544;2023-04-24T13:06:53;9;8.3;6.5
61879;PMS7003;47817;52.798;27.544;2023-04-24T13:11:29;5.2;4.4;4.2
61879;PMS7003;47817;52.798;27.544;2023-04-24T13:16:53;4.4;3.6;3
61879;PMS7003;47817;52.798;27.544;2023-04-24T13:21:37;2.8;2.4;2.2
61879;PMS7003;47817;52.798;27.544;2023-04-24T13:26:51;2.6;2.2;1.8
61879;PMS7003;47817;52.798;27.544;2023-04-24T13:31:31;8.4;7;5.6
61879;PMS7003;47817;52.798;27.544;2023-04-24T13:36:45;4.2;3.2;2.8
61879;PMS7003;47817;52.798;27.544;2023-04-24T13:41:19;1.8;1.8;1.4
61879;PMS7003;47817;52.798;27.544;2023-04-24T13:46:39;3.2;2.4;1.8
61879;PMS7003;47817;52.798;27.544;2023-04-24T13:51:07;2.4;2.2;1.8
61879;PMS7003;47817;52.798;27.544;2023-04-24T13:56:31;1.8;1.8;1.5
61879;PMS7003;47817;52.798;27.544;2023-04-24T14:01:53;1.6;1.6;1.2
61879;PMS7003;47817;52.798;27.544;2023-04-24T14:06:25;1.6;1.2;1
61879;PMS7003;47817;52.798;27.544;2023-04-24T14:11:31;1;1;0.6
61879;PMS7003;47817;52.798;27.544;2023-04-24T14:16:51;1.4;1.4;1.4
61879;PMS7003;47817;52.798;27.544;2023-04-24T14:21:25;2.2;1.4;1.2
61879;PMS7003;47817;52.798;27.544;2023-04-24T14:26:31;2;1.6;1.4
61879;PMS7003;47817;52.798;27.544;2023-04-24T14:31:43;2.8;2;1.8
61879;PMS7003;47817;52.798;27.544;2023-04-24T14:36:55;1.8;1.4;1.2
61879;PMS7003;47817;52.798;27.544;2023-04-24T14:41:15;1.6;1.4;1.2
61879;PMS7003;47817;52.798;27.544;2023-04-24T14:46:07;3.2;2;1.4
61879;PMS7003;47817;52.798;27.544;2023-04-24T14:51:53;6.4;5.8;4.6
61879;PMS7003;47817;52.798;27.544;2023-04-24T14:56:53;8;7.6;6.2
61879;PMS7003;47817;52.798;27.544;2023-04-24T15:01:29;4.4;4;3
61879;PMS7003;47817;52.798;27.544;2023-04-24T15:06:25;2.4;2.2;2
61879;PMS7003;47817;52.798;27.544;2023-04-24T15:11:53;1.8;1.8;1.5
61879;PMS7003;47817;52.798;27.544;2023-04-24T15:16:27;1.2;1.2;1.2
61879;PMS7003;47817;52.798;27.544;2023-04-24T15:21:07;2.6;2.4;2
61879;PMS7003;47817;52.798;27.544;2023-04-24T15:26:29;2.8;2.2;1.8
61879;PMS7003;47817;52.798;27.544;2023-04-24T15:31:43;2.6;2.2;2
61879;PMS7003;47817;52.798;27.544;2023-04-24T15:36:15;2.4;2;1.8
61879;PMS7003;47817;52.798;27.544;2023-04-24T15:41:29;2.8;2.4;2.4
61879;PMS7003;47817;52.798;27.544;2023-04-24T15:46:55;3;3;2.8
61879;PMS7003;47817;52.798;27.544;2023-04-24T15:51:31;3.4;3.2;2.6
61879;PMS7003;47817;52.798;27.544;2023-04-24T15:56:55;3;2.2;2
61879;PMS7003;47817;52.798;27.544;2023-04-24T16:01:29;2.8;2.4;2
61879;PMS7003;47817;52.798;27.544;2023-04-24T16:06:19;2.4;2;1.6
61879;PMS7003;47817;52.798;27.544;2023-04-24T16:11:29;3;2.8;2.6
61879;PMS7003;47817;52.798;27.544;2023-04-24T16:16:07;4;2.5;1.8
61879;PMS7003;47817;52.798;27.544;2023-04-24T16:21:07;4.8;4;3.2
61879;PMS7003;47817;52.798;27.544;2023-04-24T16:26:43;5.6;4.2;3.6
61879;PMS7003;47817;52.798;27.544;2023-04-24T16:31:51;4.4;4;3.4
61879;PMS7003;47817;52.798;27.544;2023-04-24T16:36:31;4.2;3.6;3.2
61879;PMS7003;47817;52.798;27.544;2023-04-24T16:41:53;4.6;4;3.2
61879;PMS7003;47817;52.798;27.544;2023-04-24T16:46:47;7;5.8;5
61879;PMS7003;47817;52.798;27.544;2023-04-24T16:51:39;5.6;5.2;4.6
61879;PMS7003;47817;52.798;27.544;2023-04-24T16:56:17;7.2;6;5.4
61879;PMS7003;47817;52.798;27.544;2023-04-24T17:01:19;11.6;10;7.6
61879;PMS7003;47817;52.798;27.544;2023-04-24T17:06:53;10;9.4;7.6
61879;PMS7003;47817;52.798;27.544;2023-04-24T17:11:13;5.8;5.2;4.6
61879;PMS7003;47817;52.798;27.544;2023-04-24T17:16:19;5.3;5;4
61879;PMS7003;47817;52.798;27.544;2023-04-24T17:21:53;6.4;5;4
61879;PMS7003;47817;52.798;27.544;2023-04-24T17:26:39;5.2;4.6;4
61879;PMS7003;47817;52.798;27.544;2023-04-24T17:31:07;5.8;4.8;4.4
61879;PMS7003;47817;52.798;27.544;2023-04-24T17:36:45;5;4;3.6
61879;PMS7003;47817;52.798;27.544;2023-04-24T17:41:53;4.4;4;3.2
61879;PMS7003;47817;52.798;27.544;2023-04-24T17:46:07;5;4.2;4
61879;PMS7003;47817;52.798;27.544;2023-04-24T17:51:19;5.6;4.6;3.6
61879;PMS7003;47817;52.798;27.544;2023-04-24T17:56:55;5.8;5;4.3
61879;PMS7003;47817;52.798;27.544;2023-04-24T18:01:55;5.6;5;4
61879;PMS7003;47817;52.798;27.544;2023-04-24T18:06:19;4;3.6;3.4
61879;PMS7003;47817;52.798;27.544;2023-04-24T18:11:27;5.2;4.4;3.8
61879;PMS7003;47817;52.798;27.544;2023-04-24T18:16:53;5.6;4.6;3.6
61879;PMS7003;47817;52.798;27.544;2023-04-24T18:21:41;4.6;4.2;3.6
61879;PMS7003;47817;52.798;27.544;2023-04-24T18:26:07;4.5;3.8;3
61879;PMS7003;47817;52.798;27.544;2023-04-24T18:31:31;4.4;3.8;3
61879;PMS7003;47817;52.798;27.544;2023-04-24T18:36:43;5.2;4.4;3.4
61879;PMS7003;47817;52.798;27.544;2023-04-24T18:41:07;5.4;4.4;3.6
61879;PMS7003;47817;52.798;27.544;2023-04-24T18:46:07;6.6;5.4;4.8
61879;PMS7003;47817;52.798;27.544;2023-04-24T18:51:53;7.8;5.2;4.6
61879;PMS7003;47817;52.798;27.544;2023-04-24T18:56:07;7.8;6.4;5.2
61879;PMS7003;47817;52.798;27.544;2023-04-24T19:01:53;6.2;5.8;5.2
61879;PMS7003;47817;52.798;27.544;2023-04-24T19:06:39;7.2;5.4;4.8
61879;PMS7003;47817;52.798;27.544;2023-04-24T19:11:07;5.8;4.4;3.8
61879;PMS7003;47817;52.798;27.544;2023-04-24T19:16:37;8;6.6;5.6
61879;PMS7003;47817;52.798;27.544;2023-04-24T19:21:19;10.3;9;6.8
61879;PMS7003;47817;52.798;27.544;2023-04-24T19:26:07;15.6;13.8;9.6
61879;PMS7003;47817;52.798;27.544;2023-04-24T19:31:33;11.2;9.2;7
61879;PMS7003;47817;52.798;27.544;2023-04-24T19:36:53;8.6;7.8;6.4
61879;PMS7003;47817;52.798;27.544;2023-04-24T19:41:19;7;6.8;5.2
61879;PMS7003;47817;52.798;27.544;2023-04-24T19:46:51;6.2;5.8;5.2
61879;PMS7003;47817;52.798;27.544;2023-04-24T19:51:51;6.4;6;4.6
61879;PMS7003;47817;52.798;27.544;2023-04-24T19:56:33;6.6;6;5
61879;PMS7003;47817;52.798;27.544;2023-04-24T20:01:29;7.8;5.8;4.5
61879;PMS7003;47817;52.798;27.544;2023-04-24T20:06:07;8.8;6.8;5.6
61879;PMS7003;47817;52.798;27.544;2023-04-24T20:11:45;8;6.6;5.4
61879;PMS7003;47817;52.798;27.544;2023-04-24T20:16:41;8.6;7.4;5.4
61879;PMS7003;47817;52.798;27.544;2023-04-24T20:21:31;7.6;7.2;6
61879;PMS7003;47817;52.798;27.544;2023-04-24T20:26:55;7.3;6;4.8
61879;PMS7003;47817;52.798;27.544;2023-04-24T20:31:51;8.8;6.6;5.2
61879;PMS7003;47817;52.798;27.544;2023-04-24T20:36:39;7.4;6.4;5.2
61879;PMS7003;47817;52.798;27.544;2023-04-24T20:41:29;7.6;6.2;5.4
61879;PMS7003;47817;52.798;27.544;2023-04-24T20:46:37;7.2;6.2;5.4
61879;PMS7003;47817;52.798;27.544;2023-04-24T20:51:19;7.2;6.4;5.4
61879;PMS7003;47817;52.798;27.544;2023-04-24T20:56:21;6.6;5.6;4.4
61879;PMS7003;47817;52.798;27.544;2023-04-24T21:01:49;7.6;6.2;5.2
61879;PMS7003;47817;52.798;27.544;2023-04-24T21:06:51;7;6.2;5
61879;PMS7003;47817;52.798;27.544;2023-04-24T21:11:17;7.4;6.4;5.4
61879;PMS7003;47817;52.798;27.544;2023-04-24T21:16:25;6.4;5.8;4.8
61879;PMS7003;47817;52.798;27.544;2023-04-24T21:21:51;6.8;6.3;4.5
61879;PMS7003;47817;52.798;27.544;2023-04-24T21:26:37;7;6.8;5
61879;PMS7003;47817;52.798;27.544;2023-04-24T21:31:19;7.2;5.4;4.6
61879;PMS7003;47817;52.798;27.544;2023-04-24T21:36:33;7.4;5.6;4.8
61879;PMS7003;47817;52.798;27.544;2023-04-24T21:41:45;6.6;5.6;4.6
61879;PMS7003;47817;52.798;27.544;2023-04-24T21:46:07;5.6;4.8;3.6
61879;PMS7003;47817;52.798;27.544;2023-04-24T21:51:07;5.4;5;4.4
61879;PMS7003;47817;52.798;27.544;2023-04-24T21:56:55;5.6;4.8;3.8
61879;PMS7003;47817;52.798;27.544;2023-04-24T22:01:39;7.8;6.8;6
61879;PMS7003;47817;52.798;27.544;2023-04-24T22:06:53;6.8;5.8;5.3
61879;PMS7003;47817;52.798;27.544;2023-04-24T22:11:23;6.4;5.2;4.2
61879;PMS7003;47817;52.798;27.544;2023-04-24T22:16:07;5.8;5.2;4.6
61879;PMS7003;47817;52.798;27.544;2023-04-24T22:21:37;5.4;5.2;4.6
61879;PMS7003;47817;52.798;27.544;2023-04-24T22:26:19;6.8;5.8;4.8
61879;PMS7003;47817;52.798;27.544;2023-04-24T22:31:33;7.3;6;5
61879;PMS7003;47817;52.798;27.544;2023-04-24T22:36:45;7.2;6;4.8
61879;PMS7003;47817;52.798;27.544;2023-04-24T22:41:55;6.8;6;5.2
61879;PMS7003;47817;52.798;27.544;2023-04-24T22:46:33;7.2;6.6;5.2
61879;PMS7003;47817;52.798;27.544;2023-04-24T22:51:53;9.2;7;5.6
61879;PMS7003;47817;52.798;27.544;2023-04-24T22:56:53;8.2;6;5
61879;PMS7003;47817;52.798;27.544;2023-04-24T23:01:41;7;5.8;4.4
61879;PMS7003;47817;52.798;27.544;2023-04-24T23:06:28;5.6;5.6;4.8
61879;PMS7003;47817;52.798;27.544;2023-04-24T23:11:45;7.2;6;5
61879;PMS7003;47817;52.798;27.544;2023-04-24T23:16:45;6.2;5.6;4.4
61879;PMS7003;47817;52.798;27.544;2023-04-24T23:21:31;6.4;5.8;5
61879;PMS7003;47817;52.798;27.544;2023-04-24T23:26:33;8.2;6.6;5
61879;PMS7003;47817;52.798;27.544;2023-04-24T23:31:53;7.3;7;5.3
61879;PMS7003;47817;52.798;27.544;2023-04-24T23:36:53;8.4;6.2;4.2
61879;PMS7003;47817;52.798;27.544;2023-04-24T23:41:19;7;6.2;4.8
61879;PMS7003;47817;52.798;27.544;2023-04-24T23:46:41;6.8;6.4;4.6
61879;PMS7003;47817;52.798;27.544;2023-04-24T23:51:37;6.6;5.8;4.6
61879;PMS7003;47817;52.798;27.544;2023-04-24T23:56:17;6;5;4
